Time;durP1;ratioP1;P1;durP2;ratioP2;P2;SDS_P1;SDS_P2;PMS_P1;PMS_P2;Temp;Humidity;BMP_temperature;BMP_pressure;BME280_temperature;BME280_humidity;BME280_pressure;Samples;Min_cycle;Max_cycle;Signal;HPM_P1;HPM_P2
2022/11/09 00:00:45;;;;;;;1.00;1.00;;;18.50;71.50;;;;;;5048380;28;43431;-74
2022/11/09 00:03:13;;;;;;;1.00;1.00;;;18.50;71.60;;;;;;5048406;28;43920;-75
2022/11/09 00:05:41;;;;;;;0.93;0.93;;;18.50;71.80;;;;;;5048081;28;43447;-74
2022/11/09 00:08:10;;;;;;;1.00;1.00;;;18.50;72.20;;;;;;5048736;28;43431;-73
2022/11/09 00:10:38;;;;;;;1.10;1.10;;;18.50;71.90;;;;;;5030505;28;43448;-74
2022/11/09 00:13:06;;;;;;;0.90;0.90;;;18.60;71.60;;;;;;5047594;28;44150;-73
2022/11/09 00:15:35;;;;;;;0.97;0.97;;;18.70;71.40;;;;;;5044303;28;43451;-74
2022/11/09 00:18:03;;;;;;;0.97;0.97;;;18.70;71.20;;;;;;5047943;28;43484;-74
2022/11/09 00:20:31;;;;;;;1.10;1.10;;;18.70;71.40;;;;;;5048694;28;43467;-73
2022/11/09 00:22:59;;;;;;;1.00;1.00;;;18.70;71.50;;;;;;5047401;28;43922;-73
2022/11/09 00:25:27;;;;;;;0.80;0.80;;;18.70;71.30;;;;;;5047395;28;43470;-75
2022/11/09 00:27:55;;;;;;;0.90;0.90;;;18.70;71.20;;;;;;5047969;28;43984;-74
2022/11/09 00:30:26;;;;;;;0.90;0.90;;;18.60;71.20;;;;;;5029720;28;43543;-73
2022/11/09 00:32:55;;;;;;;1.03;1.03;;;18.60;71.40;;;;;;5047992;28;43904;-74
2022/11/09 00:35:23;;;;;;;1.00;1.00;;;18.60;71.80;;;;;;5047752;28;43457;-74
2022/11/09 00:37:51;;;;;;;1.00;1.00;;;18.60;71.80;;;;;;5047650;28;43899;-75
2022/11/09 00:40:19;;;;;;;0.90;0.90;;;18.60;71.60;;;;;;5029593;28;43638;-74
2022/11/09 00:42:47;;;;;;;0.80;0.80;;;18.60;71.60;;;;;;5047434;28;44040;-76
2022/11/09 00:45:16;;;;;;;1.10;1.10;;;18.50;71.60;;;;;;5048397;28;44015;-74
2022/11/09 00:47:44;;;;;;;0.90;0.90;;;18.50;72.00;;;;;;5047857;28;43412;-74
2022/11/09 00:50:13;;;;;;;0.90;0.90;;;18.50;72.20;;;;;;5027574;28;43458;-75
2022/11/09 00:52:41;;;;;;;1.00;1.00;;;18.60;72.00;;;;;;5030479;28;44218;-74
2022/11/09 00:55:09;;;;;;;0.90;0.90;;;18.70;71.60;;;;;;5029429;28;44726;-75
2022/11/09 00:57:38;;;;;;;0.80;0.80;;;18.70;71.20;;;;;;5029210;28;43372;-76
2022/11/09 01:00:07;;;;;;;0.80;0.80;;;18.70;71.10;;;;;;5029405;28;43412;-73
2022/11/09 01:02:35;;;;;;;0.80;0.80;;;18.70;71.30;;;;;;5029250;28;45559;-75
2022/11/09 01:05:03;;;;;;;0.83;0.83;;;18.70;71.40;;;;;;5029593;28;43582;-73
2022/11/09 01:07:32;;;;;;;0.80;0.80;;;18.70;71.20;;;;;;5047902;28;43455;-74
2022/11/09 01:10:00;;;;;;;1.03;1.03;;;18.70;71.20;;;;;;5047627;28;43433;-74
2022/11/09 01:12:28;;;;;;;1.00;1.00;;;18.70;71.30;;;;;;5046290;28;43908;-74
2022/11/09 01:14:56;;;;;;;1.00;1.00;;;18.60;71.30;;;;;;5030275;28;44795;-75
2022/11/09 01:17:26;;;;;;;1.00;1.00;;;18.60;71.90;;;;;;5033621;28;43401;-73
2022/11/09 01:19:55;;;;;;;1.07;1.07;;;18.60;71.80;;;;;;5047740;28;43311;-75
2022/11/09 01:22:23;;;;;;;1.00;1.00;;;18.60;71.70;;;;;;5044896;28;43854;-75
2022/11/09 01:24:52;;;;;;;0.90;0.90;;;18.60;71.60;;;;;;5027228;28;44280;-74
2022/11/09 01:27:20;;;;;;;0.90;0.90;;;18.50;71.60;;;;;;5028887;28;44016;-76
2022/11/09 01:29:48;;;;;;;0.80;0.80;;;18.50;71.90;;;;;;5029465;28;43602;-76
2022/11/09 01:32:16;;;;;;;0.90;0.90;;;18.50;72.20;;;;;;5047470;28;43908;-74
2022/11/09 01:34:44;;;;;;;1.00;1.00;;;18.60;72.00;;;;;;5047094;28;43996;-74
2022/11/09 01:37:12;;;;;;;0.90;0.90;;;18.70;71.70;;;;;;5046955;28;43416;-75
2022/11/09 01:39:40;;;;;;;0.80;0.80;;;18.80;71.10;;;;;;5047097;28;43403;-74
2022/11/09 01:42:09;;;;;;;1.17;1.10;;;18.90;70.80;;;;;;5028326;28;45567;-74
2022/11/09 01:44:38;;;;;;;0.80;0.80;;;18.90;70.80;;;;;;5047010;28;44414;-75
2022/11/09 01:47:10;;;;;;;0.90;0.90;;;18.80;70.70;;;;;;5053068;28;43365;-75
2022/11/09 01:49:42;;;;;;;0.80;0.80;;;18.80;70.90;;;;;;5029011;28;43432;-74
2022/11/09 01:52:11;;;;;;;1.00;1.00;;;18.70;71.80;;;;;;5020901;28;45861;-75
2022/11/09 01:54:43;;;;;;;1.00;1.00;;;18.70;71.50;;;;;;5028522;28;45058;-74
2022/11/09 01:57:15;;;;;;;0.80;0.80;;;18.60;71.60;;;;;;5047034;28;43918;-74
2022/11/09 01:59:46;;;;;;;1.00;1.00;;;18.60;71.50;;;;;;5028736;28;43567;-74
2022/11/09 02:02:14;;;;;;;0.90;0.90;;;18.60;71.50;;;;;;5030137;28;45965;-73
2022/11/09 02:04:45;;;;;;;0.90;0.90;;;18.50;71.50;;;;;;5030127;28;44787;-75
2022/11/09 02:07:13;;;;;;;0.87;0.87;;;18.50;71.60;;;;;;5048873;28;43485;-74
2022/11/09 02:09:46;;;;;;;1.10;1.10;;;18.50;72.20;;;;;;5048457;28;43499;-73
2022/11/09 02:12:15;;;;;;;0.90;0.90;;;18.50;72.10;;;;;;5048144;28;43817;-74
2022/11/09 02:14:43;;;;;;;0.90;0.90;;;18.50;71.90;;;;;;5033624;28;44812;-73
2022/11/09 02:17:11;;;;;;;0.70;0.70;;;18.50;71.80;;;;;;5029495;28;43639;-74
2022/11/09 02:19:39;;;;;;;0.90;0.90;;;18.50;71.80;;;;;;5031168;28;43383;-74
2022/11/09 02:22:08;;;;;;;0.73;0.73;;;18.50;71.90;;;;;;5048370;28;44013;-75
2022/11/09 02:24:36;;;;;;;0.90;0.90;;;18.50;72.50;;;;;;5048554;28;43449;-74
2022/11/09 02:27:05;;;;;;;0.90;0.90;;;18.50;72.30;;;;;;5048083;28;43465;-74
2022/11/09 02:29:35;;;;;;;0.90;0.90;;;18.60;72.00;;;;;;5029796;28;43507;-73
2022/11/09 02:32:04;;;;;;;1.00;1.00;;;18.70;71.50;;;;;;5029565;28;45753;-73
2022/11/09 02:34:32;;;;;;;0.90;0.90;;;18.80;71.00;;;;;;5048190;28;43332;-73
2022/11/09 02:37:02;;;;;;;1.00;1.00;;;18.90;70.70;;;;;;5032153;28;43443;-74
2022/11/09 02:39:32;;;;;;;0.73;0.73;;;18.90;70.60;;;;;;5057164;28;43606;-74
2022/11/09 02:42:03;;;;;;;0.80;0.80;;;18.90;70.80;;;;;;5033399;28;44552;-74
2022/11/09 02:44:38;;;;;;;0.90;0.90;;;18.80;70.80;;;;;;5034902;28;44404;-74
2022/11/09 02:47:07;;;;;;;0.90;0.90;;;18.70;71.00;;;;;;5033892;28;43965;-75
2022/11/09 02:49:35;;;;;;;0.77;0.77;;;18.70;71.50;;;;;;5055861;28;43514;-76
2022/11/09 02:52:03;;;;;;;0.73;0.73;;;18.60;71.60;;;;;;5051002;28;43607;-74
2022/11/09 02:54:33;;;;;;;0.83;0.83;;;18.60;71.50;;;;;;5054067;28;44798;-73
2022/11/09 02:57:00;;;;;;;0.80;0.80;;;18.60;71.50;;;;;;5050368;28;43458;-74
2022/11/09 02:59:28;;;;;;;0.80;0.80;;;18.60;71.60;;;;;;5033184;28;43620;-74
2022/11/09 03:01:57;;;;;;;0.93;0.80;;;18.60;71.70;;;;;;5032738;28;45481;-73
2022/11/09 03:04:27;;;;;;;0.70;0.70;;;18.50;72.10;;;;;;5033033;28;43429;-74
2022/11/09 03:06:55;;;;;;;0.87;0.87;;;18.50;71.90;;;;;;5035427;28;44102;-73
2022/11/09 03:09:23;;;;;;;0.80;0.80;;;18.50;71.80;;;;;;5032777;28;44064;-74
2022/11/09 03:11:52;;;;;;;0.83;0.83;;;18.50;71.80;;;;;;5033120;28;44479;-72
2022/11/09 03:14:21;;;;;;;0.90;0.90;;;18.50;71.90;;;;;;5051120;28;43936;-72
2022/11/09 03:16:54;;;;;;;0.80;0.80;;;18.50;72.20;;;;;;5032561;28;43447;-75
2022/11/09 03:19:22;;;;;;;0.90;0.90;;;18.50;72.50;;;;;;5055108;28;43628;-74
2022/11/09 03:21:52;;;;;;;0.63;0.63;;;18.60;72.20;;;;;;5032906;28;45653;-75
2022/11/09 03:24:23;;;;;;;0.77;0.77;;;18.70;71.70;;;;;;5029828;28;43405;-74
2022/11/09 03:26:57;;;;;;;0.80;0.80;;;18.80;71.20;;;;;;5038352;28;43433;-74
2022/11/09 03:29:25;;;;;;;0.70;0.70;;;18.90;71.00;;;;;;5033021;28;43470;-73
2022/11/09 03:31:55;;;;;;;0.80;0.80;;;18.80;70.90;;;;;;5050288;28;43853;-73
2022/11/09 03:34:23;;;;;;;0.80;0.80;;;18.80;70.90;;;;;;5032825;28;44779;-74
2022/11/09 03:36:51;;;;;;;0.90;0.90;;;18.70;71.00;;;;;;5050615;28;43369;-73
2022/11/09 03:39:20;;;;;;;0.90;0.90;;;18.70;71.20;;;;;;5032200;28;44030;-73
2022/11/09 03:41:48;;;;;;;0.80;0.80;;;18.60;71.70;;;;;;5037038;28;45533;-74
2022/11/09 03:44:18;;;;;;;0.90;0.90;;;18.60;71.70;;;;;;5031886;28;44767;-73
2022/11/09 03:46:46;;;;;;;0.90;0.90;;;18.60;71.70;;;;;;5032579;28;43526;-75
2022/11/09 03:49:14;;;;;;;0.70;0.70;;;18.60;71.70;;;;;;5049671;28;43570;-73
2022/11/09 03:51:42;;;;;;;0.70;0.70;;;18.60;71.70;;;;;;5048960;28;43679;-74
2022/11/09 03:54:10;;;;;;;0.80;0.80;;;18.50;71.80;;;;;;5049407;28;43921;-73
2022/11/09 03:56:38;;;;;;;0.80;0.80;;;18.50;72.30;;;;;;5049559;28;43512;-75
2022/11/09 03:59:06;;;;;;;0.70;0.70;;;18.50;72.10;;;;;;5049891;28;43940;-74
2022/11/09 04:01:35;;;;;;;1.00;1.00;;;18.50;71.90;;;;;;5049092;28;43592;-73
2022/11/09 04:04:03;;;;;;;0.73;0.73;;;18.50;71.90;;;;;;5049329;28;43442;-73
2022/11/09 04:06:32;;;;;;;0.80;0.80;;;18.50;71.90;;;;;;5048870;28;43685;-74
2022/11/09 04:08:59;;;;;;;0.80;0.80;;;18.50;72.20;;;;;;5031057;28;43598;-75
2022/11/09 04:11:27;;;;;;;0.80;0.80;;;18.50;72.50;;;;;;5049327;28;43791;-74
2022/11/09 04:13:56;;;;;;;0.80;0.80;;;18.50;72.20;;;;;;5048246;28;43954;-73
2022/11/09 04:16:23;;;;;;;0.83;0.83;;;18.60;71.90;;;;;;5048387;28;43414;-74
2022/11/09 04:18:53;;;;;;;0.83;0.83;;;18.80;71.40;;;;;;5048987;28;43515;-74
2022/11/09 04:21:21;;;;;;;0.90;0.90;;;18.90;70.90;;;;;;5030232;28;45023;-74
2022/11/09 04:23:51;;;;;;;0.90;0.90;;;18.90;70.70;;;;;;5048206;28;43362;-75
2022/11/09 04:26:19;;;;;;;0.83;0.83;;;18.90;70.70;;;;;;5030395;28;43477;-73
2022/11/09 04:28:46;;;;;;;0.90;0.90;;;18.80;70.80;;;;;;5048717;28;43407;-73
2022/11/09 04:31:15;;;;;;;0.80;0.80;;;18.80;71.00;;;;;;5048019;28;43608;-74
2022/11/09 04:33:43;;;;;;;0.80;0.80;;;18.70;71.20;;;;;;5048560;28;43384;-72
2022/11/09 04:36:12;;;;;;;0.87;0.87;;;18.60;71.70;;;;;;5049077;28;43758;-74
2022/11/09 04:38:40;;;;;;;0.97;0.97;;;18.60;71.70;;;;;;5050911;28;43383;-73
2022/11/09 04:41:08;;;;;;;0.70;0.70;;;18.60;71.70;;;;;;5049940;28;43549;-73
2022/11/09 04:43:36;;;;;;;0.73;0.73;;;18.60;71.70;;;;;;5050396;28;43444;-75
2022/11/09 04:46:04;;;;;;;0.80;0.80;;;18.50;72.40;;;;;;5031699;28;43505;-74
2022/11/09 04:48:32;;;;;;;0.90;0.90;;;18.50;71.90;;;;;;5050781;28;43507;-74
2022/11/09 04:51:01;;;;;;;0.90;0.90;;;18.50;72.30;;;;;;5031765;28;45601;-74
2022/11/09 04:53:30;;;;;;;0.90;0.90;;;18.50;72.20;;;;;;5049083;28;43802;-74
2022/11/09 04:55:58;;;;;;;1.00;1.00;;;18.60;71.90;;;;;;5049779;28;43368;-74
2022/11/09 04:58:26;;;;;;;1.07;1.07;;;18.70;71.60;;;;;;5049456;28;43449;-74
2022/11/09 05:00:54;;;;;;;1.00;1.00;;;18.80;71.40;;;;;;5048997;28;43605;-74
2022/11/09 05:03:22;;;;;;;1.70;1.07;;;18.80;71.40;;;;;;5055156;28;45217;-74
2022/11/09 05:05:50;;;;;;;1.17;1.10;;;18.70;71.60;;;;;;5049595;28;43385;-74
2022/11/09 05:08:18;;;;;;;1.07;1.07;;;18.70;71.50;;;;;;5050484;28;43419;-72
2022/11/09 05:10:47;;;;;;;1.00;1.00;;;18.70;71.50;;;;;;5049743;28;43667;-74
2022/11/09 05:13:15;;;;;;;0.93;0.93;;;18.70;71.50;;;;;;5030381;28;44288;-73
2022/11/09 05:15:43;;;;;;;7.53;1.60;;;18.60;71.60;;;;;;5048991;28;43430;-73
2022/11/09 05:18:11;;;;;;;1.83;1.30;;;18.60;72.00;;;;;;5049442;28;43412;-75
2022/11/09 05:20:39;;;;;;;4.40;1.20;;;18.60;72.10;;;;;;5049100;28;43692;-73
2022/11/09 05:25:53;;;;;;;4.17;1.50;;;18.60;71.90;;;;;;5049229;28;43438;-72
2022/11/09 05:28:21;;;;;;;1.90;1.37;;;18.60;72.00;;;;;;5049662;28;43422;-74
2022/11/09 05:30:49;;;;;;;1.40;1.20;;;18.50;71.90;;;;;;5049176;28;43604;-74
2022/11/09 05:33:17;;;;;;;1.93;1.30;;;18.50;72.40;;;;;;5047825;28;43965;-74
2022/11/09 05:35:46;;;;;;;1.50;1.40;;;18.50;72.30;;;;;;5046117;28;43538;-75
2022/11/09 05:38:14;;;;;;;1.50;1.40;;;18.50;72.20;;;;;;5048666;28;43433;-74
2022/11/09 05:40:43;;;;;;;1.10;1.10;;;18.60;72.20;;;;;;5048487;28;43584;-73
2022/11/09 05:43:13;;;;;;;1.10;1.10;;;18.50;72.00;;;;;;5048327;28;43514;-73
2022/11/09 05:45:41;;;;;;;1.33;1.23;;;18.50;72.10;;;;;;5048605;28;43504;-73
2022/11/09 05:48:11;;;;;;;1.30;1.30;;;18.50;72.60;;;;;;5048444;28;43469;-74
2022/11/09 05:50:40;;;;;;;2.07;1.27;;;18.50;72.50;;;;;;5029811;28;45612;-74
2022/11/09 05:53:23;;;;;;;1.63;1.53;;;18.60;72.20;;;;;;5025027;28;45428;-74
2022/11/09 05:55:51;;;;;;;3.33;1.70;;;18.70;71.70;;;;;;5047746;28;43380;-73
2022/11/09 05:58:21;;;;;;;1.83;1.73;;;18.90;71.20;;;;;;5048001;28;43536;-72
2022/11/09 06:00:49;;;;;;;2.97;2.10;;;18.90;70.90;;;;;;5048518;28;43599;-74
2022/11/09 06:03:17;;;;;;;4.67;1.77;;;19.00;70.90;;;;;;5048095;28;43408;-74
2022/11/09 06:05:46;;;;;;;2.33;2.03;;;18.90;70.90;;;;;;5029699;28;43454;-75
2022/11/09 06:08:15;;;;;;;2.00;1.80;;;18.80;71.00;;;;;;5048681;28;43350;-74
2022/11/09 06:10:43;;;;;;;1.90;1.80;;;18.80;71.30;;;;;;5047836;28;43600;-74
2022/11/09 06:13:11;;;;;;;2.10;1.93;;;18.70;71.70;;;;;;5048101;28;43537;-73
2022/11/09 06:15:40;;;;;;;2.00;1.80;;;18.70;71.90;;;;;;5048490;28;44139;-73
2022/11/09 06:18:08;;;;;;;2.03;1.93;;;18.70;71.90;;;;;;5030303;28;43657;-73
2022/11/09 06:20:36;;;;;;;1.90;1.80;;;18.60;71.70;;;;;;5048381;28;43696;-73
2022/11/09 06:23:04;;;;;;;1.80;1.70;;;18.60;71.90;;;;;;5030117;28;44837;-73
2022/11/09 06:25:32;;;;;;;2.00;1.80;;;18.60;72.00;;;;;;5029295;28;43392;-73
2022/11/09 06:28:00;;;;;;;2.00;1.80;;;18.50;72.40;;;;;;5048703;28;43409;-74
2022/11/09 06:30:28;;;;;;;2.23;2.03;;;18.60;72.40;;;;;;5046540;28;43923;-74
2022/11/09 06:33:01;;;;;;;1.87;1.77;;;18.60;72.10;;;;;;5048472;28;43380;-76
2022/11/09 06:35:29;;;;;;;2.10;2.00;;;18.60;72.00;;;;;;5048606;28;44360;-74
2022/11/09 06:37:57;;;;;;;1.70;1.60;;;18.60;72.10;;;;;;5047933;28;43482;-74
2022/11/09 06:40:25;;;;;;;2.20;2.00;;;18.50;72.10;;;;;;5047729;28;43859;-74
2022/11/09 06:42:53;;;;;;;1.83;1.73;;;18.50;72.60;;;;;;5030846;28;45041;-71
2022/11/09 06:45:21;;;;;;;2.03;1.87;;;18.50;72.50;;;;;;5029910;28;43422;-74
2022/11/09 06:47:49;;;;;;;2.20;2.00;;;18.60;72.10;;;;;;5047149;28;43496;-75
2022/11/09 06:50:18;;;;;;;1.87;1.77;;;18.80;71.70;;;;;;5046492;28;43767;-74
2022/11/09 06:52:46;;;;;;;3.53;2.57;;;18.90;71.10;;;;;;5048035;28;43401;-74
2022/11/09 06:55:14;;;;;;;2.40;2.17;;;19.00;70.90;;;;;;5047746;28;43916;-74
2022/11/09 06:57:42;;;;;;;2.20;1.90;;;19.00;70.90;;;;;;5048405;28;43404;-74
2022/11/09 07:00:11;;;;;;;2.00;1.90;;;18.90;70.90;;;;;;5047620;28;43932;-71
2022/11/09 07:02:39;;;;;;;2.17;1.90;;;18.80;71.00;;;;;;5047332;28;44012;-75
2022/11/09 07:05:07;;;;;;;1.80;1.70;;;18.80;71.20;;;;;;5047814;28;43429;-75
2022/11/09 07:07:36;;;;;;;1.83;1.73;;;18.70;71.80;;;;;;5045668;28;43447;-74
2022/11/09 07:10:05;;;;;;;1.77;1.67;;;18.70;71.80;;;;;;5047809;28;43905;-74
2022/11/09 07:12:34;;;;;;;1.63;1.50;;;18.70;71.70;;;;;;5047758;28;43582;-74
2022/11/09 07:15:02;;;;;;;1.90;1.87;;;18.70;71.70;;;;;;5047945;28;43379;-74
2022/11/09 07:17:30;;;;;;;2.10;1.80;;;18.60;71.70;;;;;;5047905;28;43392;-75
2022/11/09 07:19:58;;;;;;;2.00;1.90;;;18.60;71.90;;;;;;5047739;28;43908;-74
2022/11/09 07:22:27;;;;;;;2.13;1.93;;;18.60;72.40;;;;;;5029504;28;43364;-72
2022/11/09 07:24:56;;;;;;;1.53;1.53;;;18.60;72.20;;;;;;5033823;28;43499;-72
2022/11/09 07:27:24;;;;;;;1.70;1.60;;;18.60;72.00;;;;;;5051222;28;43468;-74
2022/11/09 07:29:55;;;;;;;1.90;1.80;;;18.60;72.00;;;;;;5032197;28;45916;-71
2022/11/09 07:32:23;;;;;;;1.90;1.53;;;18.50;71.90;;;;;;5032690;28;44955;-74
2022/11/09 07:35:11;;;;;;;1.70;1.60;;;18.50;72.10;;;;;;5051156;28;43348;-74
2022/11/09 07:37:39;;;;;;;1.77;1.60;;;18.50;72.50;;;;;;5051141;28;43897;-72
2022/11/09 07:40:09;;;;;;;1.50;1.50;;;18.60;72.40;;;;;;5049999;28;43869;-74
2022/11/09 07:42:37;;;;;;;1.67;1.60;;;18.70;71.90;;;;;;5050567;28;43512;-76
2022/11/09 07:45:07;;;;;;;2.23;1.90;;;18.90;71.40;;;;;;5032388;28;43519;-73
2022/11/09 07:47:35;;;;;;;1.60;1.60;;;18.90;70.90;;;;;;5051558;28;43426;-73
2022/11/09 07:50:03;;;;;;;1.80;1.70;;;19.00;70.90;;;;;;5044427;28;43909;-72
2022/11/09 07:52:31;;;;;;;1.97;1.77;;;18.90;70.90;;;;;;5050575;28;43445;-74
2022/11/09 07:54:59;;;;;;;1.63;1.53;;;18.90;71.00;;;;;;5050654;28;44087;-73
2022/11/09 07:57:28;;;;;;;1.43;1.43;;;18.80;71.20;;;;;;5051115;28;43504;-75
2022/11/09 07:59:56;;;;;;;1.70;1.70;;;18.70;71.50;;;;;;5032089;28;45596;-73
2022/11/09 08:02:24;;;;;;;1.67;1.57;;;18.70;71.90;;;;;;5050635;28;44025;-73
2022/11/09 08:04:52;;;;;;;1.70;1.60;;;18.70;71.80;;;;;;5050006;28;43926;-76
2022/11/09 08:07:22;;;;;;;1.63;1.63;;;18.70;71.80;;;;;;5050943;28;43396;-72
2022/11/09 08:09:50;;;;;;;1.70;1.70;;;18.60;71.70;;;;;;5034953;28;46055;-75
2022/11/09 08:12:18;;;;;;;1.53;1.47;;;18.60;71.80;;;;;;5031926;28;43597;-76
2022/11/09 08:14:47;;;;;;;1.63;1.53;;;18.50;72.20;;;;;;5050413;28;43649;-75
2022/11/09 08:17:15;;;;;;;1.70;1.60;;;18.60;72.40;;;;;;5050470;28;43462;-74
2022/11/09 08:19:43;;;;;;;1.80;1.70;;;18.70;72.20;;;;;;5048064;28;44120;-73
2022/11/09 08:22:11;;;;;;;1.70;1.60;;;18.70;71.70;;;;;;5049664;28;43540;-72
2022/11/09 08:24:39;;;;;;;2.03;1.80;;;18.80;71.50;;;;;;5031835;28;43436;-73
2022/11/09 08:27:07;;;;;;;1.93;1.73;;;18.80;71.40;;;;;;5050117;28;43396;-74
2022/11/09 08:29:35;;;;;;;1.60;1.60;;;18.70;71.60;;;;;;5031429;28;45986;-74
2022/11/09 08:32:05;;;;;;;1.90;1.80;;;18.80;71.70;;;;;;5049945;28;43552;-74
2022/11/09 08:34:32;;;;;;;1.40;1.40;;;18.70;71.50;;;;;;5050144;28;43511;-74
2022/11/09 08:37:01;;;;;;;2.00;1.60;;;18.70;71.50;;;;;;5050382;28;43436;-73
2022/11/09 08:39:29;;;;;;;1.70;1.60;;;18.70;71.60;;;;;;5030797;28;45628;-75
2022/11/09 08:41:57;;;;;;;1.60;1.60;;;18.60;71.90;;;;;;5027079;28;45038;-74
2022/11/09 08:44:25;;;;;;;1.50;1.40;;;18.60;72.20;;;;;;5049185;28;43365;-75
2022/11/09 08:46:53;;;;;;;1.90;1.77;;;18.60;72.00;;;;;;5050137;28;43509;-73
2022/11/09 08:49:22;;;;;;;1.40;1.40;;;18.60;72.00;;;;;;5049537;28;44048;-73
2022/11/09 08:51:50;;;;;;;1.50;1.50;;;18.60;72.00;;;;;;5048647;28;43399;-73
2022/11/09 08:54:18;;;;;;;1.50;1.50;;;18.50;72.00;;;;;;5049858;28;43503;-74
2022/11/09 08:56:46;;;;;;;1.83;1.73;;;18.50;72.50;;;;;;5031312;28;43835;-74
2022/11/09 08:59:14;;;;;;;1.40;1.40;;;18.60;72.50;;;;;;5049377;28;43850;-74
2022/11/09 09:01:42;;;;;;;1.73;1.63;;;18.60;72.30;;;;;;5031162;28;44689;-73
2022/11/09 09:04:09;;;;;;;1.57;1.53;;;18.70;71.90;;;;;;5049287;28;43396;-74
2022/11/09 09:06:39;;;;;;;1.93;1.83;;;18.80;71.60;;;;;;5049957;28;43365;-75
2022/11/09 09:09:07;;;;;;;1.23;1.23;;;18.80;71.50;;;;;;5049626;28;43849;-74
2022/11/09 09:11:35;;;;;;;1.70;1.67;;;18.70;71.70;;;;;;5030924;28;44474;-74
2022/11/09 09:14:03;;;;;;;1.47;1.47;;;18.80;71.70;;;;;;5049480;28;43452;-73
2022/11/09 09:16:30;;;;;;;1.40;1.40;;;18.70;71.50;;;;;;5031044;28;43556;-73
2022/11/09 09:18:58;;;;;;;1.20;1.20;;;18.70;71.60;;;;;;5048989;28;43835;-73
2022/11/09 09:21:26;;;;;;;1.20;1.20;;;18.70;71.60;;;;;;5048893;28;44001;-72
2022/11/09 09:23:55;;;;;;;1.43;1.43;;;18.60;71.70;;;;;;5049275;28;43543;-74
2022/11/09 09:26:24;;;;;;;1.60;1.60;;;18.60;72.20;;;;;;5049473;28;43483;-74
2022/11/09 09:28:51;;;;;;;1.67;1.57;;;18.60;72.20;;;;;;5049249;28;43716;-75
2022/11/09 09:31:19;;;;;;;1.43;1.43;;;18.60;72.00;;;;;;5049497;28;43460;-73
2022/11/09 09:33:47;;;;;;;1.20;1.20;;;18.60;72.00;;;;;;5049319;28;43455;-74
2022/11/09 09:36:16;;;;;;;1.47;1.47;;;18.60;72.10;;;;;;5031076;28;43668;-73
2022/11/09 09:38:44;;;;;;;1.40;1.40;;;18.50;72.20;;;;;;5048306;28;43608;-72
2022/11/09 09:41:17;;;;;;;1.40;1.37;;;18.50;72.50;;;;;;5034642;28;44999;-74
2022/11/09 09:43:47;;;;;;;1.83;1.60;;;18.60;72.40;;;;;;5049414;28;43867;-74
2022/11/09 09:46:18;;;;;;;1.80;1.70;;;18.70;72.00;;;;;;5048066;28;43494;-74
2022/11/09 09:48:48;;;;;;;1.20;1.20;;;18.80;71.40;;;;;;5048778;28;43611;-73
2022/11/09 09:51:18;;;;;;;1.57;1.57;;;18.90;71.10;;;;;;5028937;28;44337;-74
2022/11/09 09:53:49;;;;;;;1.30;1.30;;;18.90;70.90;;;;;;5049203;28;43953;-75
2022/11/09 09:56:19;;;;;;;1.57;1.30;;;18.90;71.00;;;;;;5049890;28;43420;-73
2022/11/09 09:58:49;;;;;;;1.40;1.40;;;18.80;71.10;;;;;;5048782;28;43697;-74
2022/11/09 10:01:19;;;;;;;1.20;1.20;;;18.80;71.40;;;;;;5048585;28;44410;-73
2022/11/09 10:03:47;;;;;;;1.30;1.30;;;18.70;71.60;;;;;;5030281;28;43556;-73
2022/11/09 10:06:26;;;;;;;1.33;1.33;;;18.70;72.10;;;;;;5049085;28;43587;-74
2022/11/09 10:08:57;;;;;;;1.30;1.30;;;18.70;71.90;;;;;;5024907;28;46042;-74
2022/11/09 10:11:29;;;;;;;1.40;1.40;;;18.60;71.80;;;;;;5030664;28;44378;-73
2022/11/09 10:14:07;;;;;;;1.40;1.40;;;18.60;71.90;;;;;;5043939;28;43439;-73
2022/11/09 10:16:38;;;;;;;1.20;1.20;;;18.60;72.00;;;;;;5049084;28;44041;-74
2022/11/09 10:19:18;;;;;;;1.20;1.20;;;18.50;73.20;;;;;;5048425;28;43611;-74
2022/11/09 10:21:48;;;;;;;1.43;1.43;;;18.60;72.50;;;;;;5048673;28;43434;-75
2022/11/09 10:24:23;;;;;;;1.20;1.20;;;18.60;72.30;;;;;;5048601;28;43411;-75
2022/11/09 10:26:54;;;;;;;1.40;1.40;;;18.60;72.20;;;;;;5027734;28;43567;-73
2022/11/09 10:29:23;;;;;;;1.40;1.30;;;18.50;72.10;;;;;;5025383;28;43949;-74
2022/11/09 10:31:53;;;;;;;1.33;1.33;;;18.50;72.20;;;;;;5021102;28;44695;-74
2022/11/09 10:34:23;;;;;;;1.83;1.73;;;18.50;72.80;;;;;;5027932;28;43520;-74
2022/11/09 10:37:01;;;;;;;1.20;1.20;;;18.60;72.60;;;;;;5027816;28;43583;-74
2022/11/09 10:39:35;;;;;;;1.30;1.30;;;18.70;72.20;;;;;;5026104;28;45351;-73
2022/11/09 10:42:23;;;;;;;1.20;1.20;;;18.80;71.80;;;;;;5025096;28;43387;-74
2022/11/09 10:45:15;;;;;;;1.30;1.30;;;18.80;71.50;;;;;;5020754;28;43408;-74
2022/11/09 10:48:01;;;;;;;1.50;1.40;;;18.80;71.40;;;;;;5023819;28;43363;-74
2022/11/09 10:50:50;;;;;;;1.27;1.27;;;18.80;71.70;;;;;;5018352;28;43485;-76
2022/11/09 10:53:37;;;;;;;1.17;1.17;;;18.80;71.50;;;;;;5025815;28;43440;-75
2022/11/09 10:56:23;;;;;;;1.20;1.20;;;18.80;71.50;;;;;;5028369;28;43874;-74
2022/11/09 10:59:31;;;;;;;1.10;1.10;;;18.70;71.60;;;;;;5024539;28;43325;-73
2022/11/09 11:02:39;;;;;;;1.20;1.20;;;18.70;71.80;;;;;;5024019;28;43977;-74
2022/11/09 11:05:28;;;;;;;1.40;1.40;;;18.60;72.20;;;;;;5031256;28;43401;-73
2022/11/09 11:08:33;;;;;;;1.20;1.20;;;18.60;72.00;;;;;;5024204;28;43368;-74
2022/11/09 11:11:24;;;;;;;1.20;1.20;;;18.60;72.00;;;;;;5028952;28;43447;-72
2022/11/09 11:14:23;;;;;;;1.40;1.40;;;18.60;72.10;;;;;;5027216;28;43495;-74
2022/11/09 11:17:22;;;;;;;1.23;1.23;;;18.50;72.40;;;;;;5029912;28;43562;-75
2022/11/09 11:20:28;;;;;;;1.33;1.33;;;18.60;72.60;;;;;;5028044;28;43447;-74
2022/11/09 11:23:16;;;;;;;1.20;1.20;;;18.70;72.30;;;;;;5025749;28;43435;-74
2022/11/09 11:26:19;;;;;;;1.00;1.00;;;18.80;71.80;;;;;;5037694;28;43544;-75
2022/11/09 11:29:11;;;;;;;1.20;1.20;;;18.80;72.30;;;;;;5046378;28;43419;-74
2022/11/09 11:31:57;;;;;;;1.50;1.40;;;18.80;71.70;;;;;;5044139;28;43360;-74
2022/11/09 11:34:45;;;;;;;1.13;1.13;;;18.80;71.80;;;;;;5048521;28;43925;-73
2022/11/09 11:37:51;;;;;;;1.23;1.23;;;18.80;71.70;;;;;;5044812;28;43621;-73
2022/11/09 11:40:41;;;;;;;0.90;0.90;;;18.70;71.60;;;;;;5047786;28;43472;-75
2022/11/09 11:43:35;;;;;;;1.10;1.10;;;18.70;71.80;;;;;;5046203;28;43893;-74
2022/11/09 11:46:25;;;;;;;1.30;1.30;;;18.60;72.20;;;;;;5048489;28;43405;-74
2022/11/09 11:49:27;;;;;;;1.20;1.20;;;18.60;72.20;;;;;;5042184;28;43493;-75
2022/11/09 11:52:17;;;;;;;2.30;1.30;;;18.60;72.00;;;;;;5046726;28;43456;-72
2022/11/09 11:55:40;;;;;;;1.20;1.20;;;18.60;72.10;;;;;;5046604;28;43396;-73
2022/11/09 11:58:36;;;;;;;1.20;1.20;;;18.60;72.20;;;;;;5008236;28;43876;-75
2022/11/09 12:01:31;;;;;;;1.10;1.10;;;18.60;72.70;;;;;;5047806;28;43680;-74
2022/11/09 12:04:36;;;;;;;1.03;1.03;;;18.60;72.30;;;;;;5044501;28;43384;-73
2022/11/09 12:07:31;;;;;;;1.30;1.20;;;18.70;71.90;;;;;;5043205;28;43847;-74
2022/11/09 12:10:23;;;;;;;1.37;1.37;;;18.80;71.70;;;;;;5047203;28;43317;-73
2022/11/09 12:13:16;;;;;;;1.50;1.20;;;18.80;71.70;;;;;;5043077;28;43494;-73
2022/11/09 12:16:06;;;;;;;1.40;1.33;;;18.70;71.90;;;;;;5048121;28;43330;-73
2022/11/09 12:18:59;;;;;;;1.20;1.20;;;18.70;71.80;;;;;;5043214;28;44007;-73
2022/11/09 12:21:49;;;;;;;0.97;0.97;;;18.70;71.70;;;;;;5048422;28;43508;-74
2022/11/09 12:24:40;;;;;;;1.13;1.13;;;18.70;71.90;;;;;;5047089;28;43546;-74
2022/11/09 12:27:37;;;;;;;1.13;1.13;;;18.60;72.10;;;;;;5049679;28;43410;-73
2022/11/09 12:30:25;;;;;;;1.20;1.20;;;18.60;72.40;;;;;;5042763;28;43378;-74
2022/11/09 12:33:14;;;;;;;1.20;1.20;;;18.60;72.30;;;;;;5047852;28;44341;-73
2022/11/09 12:36:02;;;;;;;1.20;1.20;;;18.60;72.10;;;;;;5047004;28;43929;-74
2022/11/09 12:38:56;;;;;;;1.50;1.40;;;18.60;72.20;;;;;;5048654;28;43903;-74
2022/11/09 12:41:45;;;;;;;1.30;1.30;;;18.60;72.80;;;;;;5048559;28;43340;-74
2022/11/09 12:44:33;;;;;;;1.63;1.60;;;18.60;72.70;;;;;;5047436;28;43377;-73
2022/11/09 12:47:22;;;;;;;1.40;1.40;;;18.70;72.20;;;;;;5047046;28;43972;-75
2022/11/09 12:50:12;;;;;;;1.20;1.20;;;18.80;71.90;;;;;;5046049;28;43443;-75
2022/11/09 12:52:58;;;;;;;1.40;1.40;;;18.80;71.70;;;;;;5046580;28;43400;-73
2022/11/09 12:55:47;;;;;;;1.20;1.20;;;18.80;72.00;;;;;;5041659;28;43479;-75
2022/11/09 12:58:36;;;;;;;1.17;1.17;;;18.80;72.00;;;;;;5047476;28;43559;-75
2022/11/09 13:01:45;;;;;;;1.40;1.40;;;18.80;71.90;;;;;;5049888;28;43400;-73
2022/11/09 13:04:31;;;;;;;1.30;1.30;;;18.70;71.80;;;;;;5045546;28;43434;-72
2022/11/09 13:07:26;;;;;;;1.07;1.07;;;18.70;72.00;;;;;;5041675;28;43456;-74
2022/11/09 13:10:24;;;;;;;1.20;1.20;;;18.60;72.50;;;;;;5044463;28;43632;-73
2022/11/09 13:13:22;;;;;;;1.30;1.30;;;18.70;72.50;;;;;;5042178;28;43348;-75
2022/11/09 13:16:13;;;;;;;1.07;1.07;;;18.60;72.20;;;;;;5046405;28;43344;-74
2022/11/09 13:18:59;;;;;;;1.33;1.33;;;18.60;72.20;;;;;;5046203;28;43425;-74
2022/11/09 13:21:45;;;;;;;1.30;1.30;;;18.50;72.20;;;;;;5045542;28;43564;-73